CDT,Max TemperatureF,Mean TemperatureF,Min TemperatureF,Max Dew PointF,MeanDew PointF,Min DewpointF,Max Humidity, Mean Humidity, Min Humidity, Max Sea Level PressureIn, Mean Sea Level PressureIn, Min Sea Level PressureIn, Max VisibilityMiles, Mean VisibilityMiles, Min VisibilityMiles, Max Wind SpeedMPH, Mean Wind SpeedMPH, Max Gust SpeedMPH,PrecipitationIn, CloudCover, Events, WindDirDegrees
2012-10-1,66,52,37,46,34,25,100,58,22,30.25,30.14,29.90,10,10,7,14,7,20,0.00,1,,262
2012-10-2,73,57,39,39,33,27,81,40,23,29.88,29.74,29.66,10,10,8,25,15,34,0.00,0,,243
2012-10-3,50,42,33,39,36,32,100,85,66,30.28,30.05,29.86,10,7,1,18,8,25,1.03,5,Rain-Snow,9
2012-10-4,39,34,28,36,29,25,93,77,60,30.36,30.33,30.28,10,10,5,18,14,25,0.05,6,Rain,329
2012-10-5,39,31,23,28,21,18,93,70,45,30.42,30.37,30.34,10,10,3,23,9,28,0.12,5,Snow,324
2012-10-6,46,35,24,28,21,9,100,66,22,30.42,30.33,30.13,10,10,3,14,7,21,0.04,2,Snow,249
2012-10-7,55,37,19,39,28,16,93,68,36,30.12,29.91,29.70,10,10,8,20,6,25,0.01,5,Rain,262
2012-10-8,53,47,39,41,35,23,81,61,38,29.82,29.69,29.58,10,10,10,26,13,39,0.00,7,,299
2012-10-9,39,36,32,34,29,23,93,75,56,30.06,29.98,29.82,10,10,3,24,16,36,0.14,6,Rain-Snow,298
2012-10-10,59,42,24,37,30,21,93,73,36,30.06,29.94,29.78,10,10,10,17,6,23,0.00,6,Rain,309
2012-10-11,41,32,23,34,26,19,93,74,49,30.35,30.26,30.06,10,10,9,17,6,21,0.00,6,,348
2012-10-12,60,46,32,32,27,23,80,56,31,30.29,29.96,29.66,10,10,9,30,14,40,0.00,2,,177
2012-10-13,64,46,28,39,33,25,93,65,34,29.95,29.75,29.64,10,10,10,20,6,25,0.00,1,,290
2012-10-14,66,49,32,37,34,30,100,73,32,30.00,29.94,29.88,10,10,10,13,4,18,0.00,2,,237
2012-10-15,75,56,37,48,39,36,93,50,25,29.87,29.70,29.60,10,10,10,18,7,25,0.00,4,,249
2012-10-16,68,54,39,50,46,37,100,76,37,29.65,29.45,29.28,10,10,9,15,7,22,0.00,4,Rain,228
2012-10-17,53,47,41,45,36,28,93,73,50,29.53,29.39,29.27,10,9,5,44,25,59,0.21,7,Rain,296
2012-10-18,44,42,39,37,36,32,93,79,70,29.99,29.76,29.53,10,9,2,44,34,60,0.48,7,Rain,326
2012-10-19,48,42,37,34,32,30,81,69,54,29.97,29.83,29.64,10,10,5,15,9,26,0.00,4,,346
2012-10-20,68,49,30,50,36,27,93,67,33,29.63,29.56,29.51,10,10,6,15,3,18,0.00,3,Rain,207
2012-10-21,51,44,37,48,36,28,100,71,46,30.07,29.91,29.67,10,10,7,14,8,17,0.02,6,Rain,347
2012-10-22,44,40,37,37,34,30,93,78,57,30.10,30.00,29.78,10,10,6,15,6,21,0.00,7,Rain,87
2012-10-23,46,42,39,45,42,37,100,94,87,29.75,29.68,29.64,10,5,2,16,8,23,0.13,7,Rain,94
2012-10-24,35,30,26,25,24,23,86,74,60,30.09,30.06,30.02,10,10,10,15,11,18,0.00,1,,280
2012-10-25,33,30,28,25,22,19,86,68,60,30.28,30.16,30.07,10,10,10,24,16,34,0.00,8,Rain,299
2012-10-26,32,24,17,23,18,14,86,63,48,30.37,30.31,30.26,10,10,10,23,15,29,0.00,8,Rain-Snow,270
2012-10-27,28,26,23,25,23,18,93,88,74,30.26,30.24,30.21,10,7,1,9,3,,0.57,7,Snow,80
2012-10-28,32,28,24,32,27,21,100,89,80,30.25,30.13,30.03,10,9,2,14,7,21,0.01,8,Snow,105
2012-10-29,50,41,32,41,35,32,100,87,58,30.05,30.02,29.98,10,6,1,13,7,18,0.00,7,Rain,109
2012-10-30,60,46,32,46,38,30,100,86,55,29.99,29.98,29.95,10,9,4,9,4,,0.00,2,,159
2012-10-31,48,40,32,41,34,28,100,89,76,30.16,30.04,29.94,10,10,10,16,6,22,0.00,6,,355